Time;durP1;ratioP1;P1;durP2;ratioP2;P2;SDS_P1;SDS_P2;PMS_P1;PMS_P2;Temp;Humidity;BMP_temperature;BMP_pressure;BME280_temperature;BME280_humidity;BME280_pressure;Samples;Min_cycle;Max_cycle;Signal;HPM_P1;HPM_P2
2023/05/20 00:00:09;;;;;;;;;;;16.30;73.10;;;;;;5083300;28;19971;-72
2023/05/20 00:02:36;;;;;;;;;;;16.30;73.10;;;;;;5083626;28;20014;-72
2023/05/20 00:05:03;;;;;;;;;;;16.20;73.20;;;;;;5083563;28;19979;-70
2023/05/20 00:07:30;;;;;;;;;;;16.20;73.30;;;;;;5077423;28;19999;-72
2023/05/20 00:09:56;;;;;;;;;;;16.20;73.30;;;;;;5076777;28;19979;-71
2023/05/20 00:12:23;;;;;;;;;;;16.20;73.50;;;;;;5078611;28;20545;-71
2023/05/20 00:14:49;;;;;;;;;;;16.10;73.40;;;;;;5084807;28;20344;-72
2023/05/20 00:17:17;;;;;;;;;;;16.10;73.50;;;;;;5084127;28;20002;-72
2023/05/20 00:19:44;;;;;;;;;;;16.10;73.60;;;;;;5081222;28;19983;-71
2023/05/20 00:22:11;;;;;;;;;;;16.10;73.70;;;;;;5078334;28;19971;-72
2023/05/20 00:24:37;;;;;;;;;;;16.10;73.60;;;;;;5086633;28;19982;-71
2023/05/20 00:27:04;;;;;;;;;;;16.10;73.80;;;;;;5089675;28;19991;-72
2023/05/20 00:29:31;;;;;;;;;;;16.00;74.50;;;;;;5081738;28;19983;-71
2023/05/20 00:31:57;;;;;;;;;;;16.00;73.70;;;;;;5080918;28;19991;-72
2023/05/20 00:34:25;;;;;;;;;;;16.00;73.70;;;;;;5078841;28;19989;-71
2023/05/20 00:36:52;;;;;;;;;;;16.00;73.80;;;;;;5084479;28;19999;-72
2023/05/20 00:39:18;;;;;;;;;;;16.00;73.80;;;;;;5079940;28;20683;-72
2023/05/20 00:41:45;;;;;;;;;;;15.90;73.70;;;;;;5082889;28;19975;-70
2023/05/20 00:44:12;;;;;;;;;;;15.90;73.80;;;;;;5088137;28;20079;-71
2023/05/20 00:46:38;;;;;;;;;;;15.80;73.80;;;;;;5083606;28;20005;-71
2023/05/20 00:49:05;;;;;;;;;;;15.90;73.70;;;;;;5089641;28;19975;-71
2023/05/20 00:51:33;;;;;;;;;;;15.80;73.70;;;;;;5078608;28;20125;-72
2023/05/20 00:54:00;;;;;;;;;;;15.80;73.70;;;;;;5086972;28;19971;-71
2023/05/20 00:56:27;;;;;;;;;;;15.80;73.70;;;;;;5078730;28;19987;-72
2023/05/20 00:58:53;;;;;;;;;;;15.80;73.70;;;;;;5087494;28;19977;-70
2023/05/20 01:01:20;;;;;;;;;;;15.70;73.60;;;;;;5073147;28;19995;-71
2023/05/20 01:03:47;;;;;;;;;;;15.70;73.60;;;;;;5082038;28;19986;-72
2023/05/20 01:06:14;;;;;;;;;;;15.70;73.40;;;;;;5074420;28;20555;-72
2023/05/20 01:08:42;;;;;;;;;;;15.60;74.10;;;;;;5074717;28;19976;-72
2023/05/20 01:11:11;;;;;;;;;;;15.60;73.40;;;;;;5072397;28;21616;-72
2023/05/20 01:13:39;;;;;;;;;;;15.60;73.50;;;;;;5088171;28;19976;-71
2023/05/20 01:16:08;;;;;;;;;;;15.60;73.50;;;;;;5077334;28;19987;-71
2023/05/20 01:18:35;;;;;;;;;;;15.60;73.50;;;;;;5074422;28;19979;-71
2023/05/20 01:21:02;;;;;;;;;;;15.50;73.50;;;;;;5081183;28;19978;-71
2023/05/20 01:23:34;;;;;;;;;;;15.50;73.50;;;;;;5086227;28;19982;-71
2023/05/20 01:26:01;;;;;;;;;;;15.50;73.50;;;;;;5077376;28;19971;-72
2023/05/20 01:28:29;;;;;;;;;;;15.50;73.50;;;;;;5081918;28;20062;-72
2023/05/20 01:30:56;;;;;;;;;;;15.50;73.60;;;;;;5081226;28;20077;-71
2023/05/20 01:33:24;;;;;;;;;;;15.50;73.60;;;;;;5082710;28;20047;-71
2023/05/20 01:35:51;;;;;;;;;;;15.40;73.60;;;;;;5082379;28;19979;-71
2023/05/20 01:38:19;;;;;;;;;;;15.50;73.70;;;;;;5081463;28;19975;-72
2023/05/20 01:40:47;;;;;;;;;;;15.50;73.80;;;;;;5087999;28;20455;-71
2023/05/20 01:43:14;;;;;;;;;;;15.40;73.70;;;;;;5078203;28;19975;-71
2023/05/20 01:45:41;;;;;;;;;;;15.40;73.80;;;;;;5087305;28;19995;-71
2023/05/20 01:48:09;;;;;;;;;;;15.40;73.90;;;;;;5081862;28;19997;-71
2023/05/20 01:50:36;;;;;;;;;;;15.40;73.90;;;;;;5082033;28;20066;-71
2023/05/20 01:53:03;;;;;;;;;;;15.40;74.00;;;;;;5085584;28;19978;-72
2023/05/20 01:55:29;;;;;;;;;;;15.40;74.00;;;;;;5076017;28;19971;-72
2023/05/20 01:57:57;;;;;;;;;;;15.40;74.00;;;;;;5085507;28;20342;-71
2023/05/20 02:00:24;;;;;;;;;;;15.40;74.10;;;;;;5074469;28;19972;-71
2023/05/20 02:02:51;;;;;;;;;;;15.30;74.10;;;;;;5085073;28;20715;-71
2023/05/20 02:05:17;;;;;;;;;;;15.30;74.20;;;;;;5074769;28;19982;-72
2023/05/20 02:07:44;;;;;;;;;;;15.30;74.20;;;;;;5078780;28;19987;-72
2023/05/20 02:10:11;;;;;;;;;;;15.30;74.30;;;;;;5079544;28;19987;-71
2023/05/20 02:12:37;;;;;;;;;;;15.30;74.30;;;;;;5079468;28;19991;-72
2023/05/20 02:15:06;;;;;;;;;;;15.30;74.40;;;;;;5091886;28;19971;-72
2023/05/20 02:17:33;;;;;;;;;;;15.30;74.50;;;;;;5084241;28;20005;-71
2023/05/20 02:19:59;;;;;;;;;;;15.30;74.60;;;;;;5080198;28;19976;-71
2023/05/20 02:22:26;;;;;;;;;;;15.30;74.60;;;;;;5082785;28;19971;-71
2023/05/20 02:24:52;;;;;;;;;;;15.30;74.60;;;;;;5083423;28;19993;-72
2023/05/20 02:27:19;;;;;;;;;;;15.30;74.80;;;;;;5076901;28;19998;-72
2023/05/20 02:29:45;;;;;;;;;;;15.30;74.70;;;;;;5077222;28;19976;-71
2023/05/20 02:32:13;;;;;;;;;;;15.30;74.80;;;;;;5079869;28;20073;-71
2023/05/20 02:34:40;;;;;;;;;;;15.30;74.80;;;;;;5078799;28;19982;-71
2023/05/20 02:37:07;;;;;;;;;;;15.20;74.90;;;;;;5074122;28;20714;-71
2023/05/20 02:39:33;;;;;;;;;;;15.20;75.00;;;;;;5080030;28;19975;-71
2023/05/20 02:42:00;;;;;;;;;;;15.30;75.10;;;;;;5076789;28;19979;-71
2023/05/20 02:44:26;;;;;;;;;;;15.20;75.20;;;;;;5074278;28;19971;-71
2023/05/20 02:46:53;;;;;;;;;;;15.20;75.30;;;;;;5079028;28;19998;-71
2023/05/20 02:49:21;;;;;;;;;;;15.20;75.40;;;;;;5077302;28;19979;-70
2023/05/20 02:51:47;;;;;;;;;;;15.20;75.40;;;;;;5075480;28;19983;-71
2023/05/20 02:54:14;;;;;;;;;;;15.20;75.50;;;;;;5081484;28;19972;-71
2023/05/20 02:56:41;;;;;;;;;;;15.10;75.50;;;;;;5080566;28;19997;-71
2023/05/20 02:59:07;;;;;;;;;;;15.20;75.70;;;;;;5081268;28;20569;-71
2023/05/20 03:01:34;;;;;;;;;;;15.10;75.70;;;;;;5071408;28;19987;-71
2023/05/20 03:04:02;;;;;;;;;;;15.10;75.80;;;;;;5081660;28;20062;-71
2023/05/20 03:06:30;;;;;;;;;;;15.10;75.80;;;;;;5072137;28;20524;-71
2023/05/20 03:08:57;;;;;;;;;;;15.10;75.90;;;;;;5079687;28;20389;-71
2023/05/20 03:11:23;;;;;;;;;;;15.10;75.90;;;;;;5072024;28;19992;-71
2023/05/20 03:13:50;;;;;;;;;;;15.10;76.00;;;;;;5080059;28;19999;-72
2023/05/20 03:16:17;;;;;;;;;;;15.10;76.80;;;;;;5080451;28;20117;-71
2023/05/20 03:18:45;;;;;;;;;;;15.10;76.10;;;;;;5080066;28;19983;-72
2023/05/20 03:21:11;;;;;;;;;;;15.10;76.10;;;;;;5068882;28;19978;-71
2023/05/20 03:23:39;;;;;;;;;;;15.10;76.30;;;;;;5082758;28;20011;-71
2023/05/20 03:26:06;;;;;;;;;;;15.00;76.20;;;;;;5079724;28;19977;-71
2023/05/20 03:28:33;;;;;;;;;;;15.00;76.20;;;;;;5078901;28;20791;-71
2023/05/20 03:31:01;;;;;;;;;;;15.00;76.30;;;;;;5084351;28;19994;-71
2023/05/20 03:33:27;;;;;;;;;;;15.00;76.30;;;;;;5087338;28;20437;-71
2023/05/20 03:35:54;;;;;;;;;;;15.00;76.30;;;;;;5078717;28;19976;-72
2023/05/20 03:38:20;;;;;;;;;;;15.00;76.40;;;;;;5082542;28;19971;-72
2023/05/20 03:40:48;;;;;;;;;;;15.00;76.40;;;;;;5083566;28;20477;-71
2023/05/20 03:43:15;;;;;;;;;;;15.00;76.40;;;;;;5081188;28;19978;-71
2023/05/20 03:45:42;;;;;;;;;;;15.00;76.50;;;;;;5085760;28;20679;-72
2023/05/20 03:48:08;;;;;;;;;;;14.90;76.50;;;;;;5079346;28;19995;-71
2023/05/20 03:50:35;;;;;;;;;;;14.90;77.30;;;;;;5082998;28;19986;-71
2023/05/20 03:53:01;;;;;;;;;;;14.90;76.60;;;;;;5088509;27;20090;-72
2023/05/20 03:55:28;;;;;;;;;;;14.90;76.60;;;;;;5083804;28;19986;-71
2023/05/20 03:57:56;;;;;;;;;;;14.90;76.70;;;;;;5080056;28;19991;-71
2023/05/20 04:00:22;;;;;;;;;;;14.90;76.80;;;;;;5084834;28;19982;-71
2023/05/20 04:02:49;;;;;;;;;;;14.90;76.90;;;;;;5085901;28;19979;-71
2023/05/20 04:05:16;;;;;;;;;;;14.90;76.90;;;;;;5079708;28;19982;-71
2023/05/20 04:07:42;;;;;;;;;;;14.90;77.00;;;;;;5078026;28;19995;-71
2023/05/20 04:10:09;;;;;;;;;;;14.90;77.00;;;;;;5080726;28;19994;-71
2023/05/20 04:12:37;;;;;;;;;;;14.80;77.00;;;;;;5084155;28;19998;-71
2023/05/20 04:15:05;;;;;;;;;;;14.90;77.10;;;;;;5093538;28;20006;-71
2023/05/20 04:17:32;;;;;;;;;;;14.80;77.00;;;;;;5081378;28;20345;-71
2023/05/20 04:19:59;;;;;;;;;;;14.80;77.00;;;;;;5076417;28;19986;-71
2023/05/20 04:22:25;;;;;;;;;;;14.80;77.10;;;;;;5073787;28;20011;-71
2023/05/20 04:24:52;;;;;;;;;;;14.80;77.20;;;;;;5084586;28;19975;-70
2023/05/20 04:27:19;;;;;;;;;;;14.80;77.20;;;;;;5076698;28;20555;-71
2023/05/20 04:29:46;;;;;;;;;;;14.80;77.20;;;;;;5083695;28;19982;-71
2023/05/20 04:32:14;;;;;;;;;;;14.80;77.20;;;;;;5083499;28;20391;-71
2023/05/20 04:34:41;;;;;;;;;;;14.80;77.30;;;;;;5080369;28;19989;-71
2023/05/20 04:37:08;;;;;;;;;;;14.80;77.40;;;;;;5080527;28;20100;-71
2023/05/20 04:39:35;;;;;;;;;;;14.80;77.60;;;;;;5087679;28;20082;-71
2023/05/20 04:42:02;;;;;;;;;;;14.80;77.60;;;;;;5079497;28;19998;-72
2023/05/20 04:44:28;;;;;;;;;;;14.80;77.70;;;;;;5081153;28;20094;-71
2023/05/20 04:46:56;;;;;;;;;;;14.80;77.70;;;;;;5081788;28;20001;-72
2023/05/20 04:49:25;;;;;;;;;;;14.80;77.80;;;;;;5079731;28;19975;-71
2023/05/20 04:51:51;;;;;;;;;;;14.80;77.80;;;;;;5077020;28;20089;-71
2023/05/20 04:54:19;;;;;;;;;;;14.70;77.70;;;;;;5083895;28;20061;-71
2023/05/20 04:56:45;;;;;;;;;;;14.80;77.70;;;;;;5076641;28;19995;-71
2023/05/20 04:59:12;;;;;;;;;;;14.80;77.70;;;;;;5083683;28;19982;-71
2023/05/20 05:01:39;;;;;;;;;;;14.80;77.70;;;;;;5075938;28;20633;-71
2023/05/20 05:04:06;;;;;;;;;;;14.80;77.60;;;;;;5083573;28;20083;-71
2023/05/20 05:06:34;;;;;;;;;;;14.70;77.50;;;;;;5081100;28;20002;-71
2023/05/20 05:09:00;;;;;;;;;;;14.70;77.40;;;;;;5075655;28;19975;-71
2023/05/20 05:11:27;;;;;;;;;;;14.70;77.40;;;;;;5074528;28;19982;-71
2023/05/20 05:13:55;;;;;;;;;;;14.70;77.30;;;;;;5077063;28;20002;-71
2023/05/20 05:16:21;;;;;;;;;;;14.70;77.20;;;;;;5077965;28;19995;-71
2023/05/20 05:18:48;;;;;;;;;;;14.70;77.10;;;;;;5080100;28;19986;-71
2023/05/20 05:21:15;;;;;;;;;;;14.80;77.20;;;;;;5071915;28;19979;-71
2023/05/20 05:23:43;;;;;;;;;;;14.70;77.10;;;;;;5079220;28;19979;-71
2023/05/20 05:26:09;;;;;;;;;;;14.80;77.10;;;;;;5071150;28;19975;-71
2023/05/20 05:28:36;;;;;;;;;;;14.80;77.00;;;;;;5070525;28;19997;-71
2023/05/20 05:31:02;;;;;;;;;;;14.80;77.00;;;;;;5076381;28;19991;-71
2023/05/20 05:33:29;;;;;;;;;;;14.70;76.90;;;;;;5075143;28;20069;-71
2023/05/20 05:35:57;;;;;;;;;;;14.80;77.00;;;;;;5073193;28;19979;-71
2023/05/20 05:38:24;;;;;;;;;;;14.80;76.90;;;;;;5075158;28;20090;-71
2023/05/20 05:40:52;;;;;;;;;;;14.80;76.80;;;;;;5074386;28;20493;-72
2023/05/20 05:43:19;;;;;;;;;;;14.80;76.80;;;;;;5070503;28;19983;-72
2023/05/20 05:45:45;;;;;;;;;;;14.70;76.70;;;;;;5071534;28;20346;-71
2023/05/20 05:48:12;;;;;;;;;;;14.80;76.70;;;;;;5072386;28;20624;-71
2023/05/20 05:50:38;;;;;;;;;;;14.80;76.60;;;;;;5073868;28;20823;-71
2023/05/20 05:53:05;;;;;;;;;;;14.80;77.40;;;;;;5076495;28;20004;-71
2023/05/20 05:55:32;;;;;;;;;;;14.80;76.50;;;;;;5076058;28;20561;-71
2023/05/20 05:57:59;;;;;;;;;;;14.90;76.50;;;;;;5074726;28;20113;-71
2023/05/20 06:00:26;;;;;;;;;;;14.80;76.50;;;;;;5073890;28;20244;-71
2023/05/20 06:02:52;;;;;;;;;;;14.90;76.50;;;;;;5071974;28;20491;-71
2023/05/20 06:05:19;;;;;;;;;;;14.90;76.60;;;;;;5073287;28;19979;-71
2023/05/20 06:07:46;;;;;;;;;;;14.90;76.60;;;;;;5075915;28;19998;-71
2023/05/20 06:10:12;;;;;;;;;;;14.90;76.60;;;;;;5075672;28;19975;-71
2023/05/20 06:12:39;;;;;;;;;;;14.90;76.60;;;;;;5069706;28;19999;-71
2023/05/20 06:15:10;;;;;;;;;;;15.00;76.70;;;;;;5076488;28;20269;-72
2023/05/20 06:17:36;;;;;;;;;;;15.00;76.90;;;;;;5083298;28;20013;-71
2023/05/20 06:20:03;;;;;;;;;;;15.00;77.20;;;;;;5073313;28;20773;-71
2023/05/20 06:22:29;;;;;;;;;;;15.00;77.20;;;;;;5076745;28;19979;-71
2023/05/20 06:24:59;;;;;;;;;;;15.00;77.40;;;;;;5078685;28;20364;-71
2023/05/20 06:27:26;;;;;;;;;;;15.10;77.70;;;;;;5079504;28;20129;-71
2023/05/20 06:29:52;;;;;;;;;;;15.10;77.60;;;;;;5076391;28;19995;-71
2023/05/20 06:32:20;;;;;;;;;;;15.10;77.70;;;;;;5073980;28;19998;-72
2023/05/20 06:34:47;;;;;;;;;;;15.10;77.70;;;;;;5074466;28;19986;-71
2023/05/20 06:37:13;;;;;;;;;;;15.10;77.80;;;;;;5076492;28;19994;-71
2023/05/20 06:39:40;;;;;;;;;;;15.10;77.90;;;;;;5076705;28;20061;-71
2023/05/20 06:42:07;;;;;;;;;;;15.20;78.00;;;;;;5071930;28;20001;-72
2023/05/20 06:44:33;;;;;;;;;;;15.20;78.00;;;;;;5070693;28;20209;-72
2023/05/20 06:47:00;;;;;;;;;;;15.20;78.20;;;;;;5082825;28;19995;-70
2023/05/20 06:49:28;;;;;;;;;;;15.30;78.20;;;;;;5070634;28;20365;-71
2023/05/20 06:51:54;;;;;;;;;;;15.30;78.30;;;;;;5078104;28;20059;-71
2023/05/20 06:54:21;;;;;;;;;;;15.30;78.40;;;;;;5074570;28;20828;-71
2023/05/20 06:56:48;;;;;;;;;;;15.40;78.60;;;;;;5083662;28;20034;-71
2023/05/20 06:59:14;;;;;;;;;;;15.40;78.60;;;;;;5087853;28;19975;-71
2023/05/20 07:01:41;;;;;;;;;;;15.40;78.60;;;;;;5081353;28;20364;-72
2023/05/20 07:04:07;;;;;;;;;;;15.40;78.70;;;;;;5085476;28;20668;-71
2023/05/20 07:06:36;;;;;;;;;;;15.50;78.70;;;;;;5077902;28;19995;-71
2023/05/20 07:09:02;;;;;;;;;;;15.50;78.70;;;;;;5078410;28;20015;-71
2023/05/20 07:11:29;;;;;;;;;;;15.50;78.70;;;;;;5071723;28;19983;-71
2023/05/20 07:13:55;;;;;;;;;;;15.60;78.80;;;;;;5074203;28;19991;-71
2023/05/20 07:16:22;;;;;;;;;;;15.60;78.70;;;;;;5081136;28;19995;-72
2023/05/20 07:18:48;;;;;;;;;;;15.60;78.80;;;;;;5078135;28;19979;-72
2023/05/20 07:21:15;;;;;;;;;;;15.60;78.90;;;;;;5080569;28;19975;-71
2023/05/20 07:23:43;;;;;;;;;;;15.60;79.00;;;;;;5077461;28;19975;-71
2023/05/20 07:26:09;;;;;;;;;;;15.70;79.20;;;;;;5080274;28;19983;-71
2023/05/20 07:28:36;;;;;;;;;;;15.80;79.30;;;;;;5075740;28;19998;-71
2023/05/20 07:31:02;;;;;;;;;;;15.80;79.30;;;;;;5077397;28;19998;-71
2023/05/20 07:33:29;;;;;;;;;;;15.80;79.30;;;;;;5077482;28;19998;-71
2023/05/20 07:35:56;;;;;;;;;;;15.80;79.30;;;;;;5077773;28;20087;-71
2023/05/20 07:38:22;;;;;;;;;;;15.80;79.30;;;;;;5092388;28;19984;-72
2023/05/20 07:40:50;;;;;;;;;;;15.80;80.10;;;;;;5089740;28;19982;-71
2023/05/20 07:43:17;;;;;;;;;;;15.90;79.40;;;;;;5082837;28;19983;-71
2023/05/20 07:45:43;;;;;;;;;;;15.90;79.40;;;;;;5077337;28;20746;-71
2023/05/20 07:48:11;;;;;;;;;;;16.00;79.40;;;;;;5083514;28;20216;-71
2023/05/20 07:50:38;;;;;;;;;;;16.00;79.30;;;;;;5081938;28;20598;-71
2023/05/20 07:53:04;;;;;;;;;;;16.00;79.30;;;;;;5083018;28;19995;-71
2023/05/20 07:55:33;;;;;;;;;;;16.00;79.30;;;;;;5084379;28;19997;-71
2023/05/20 07:58:01;;;;;;;;;;;16.00;79.20;;;;;;5088242;28;20022;-71
2023/05/20 08:00:28;;;;;;;;;;;16.10;79.30;;;;;;5088194;28;20002;-71
2023/05/20 08:02:54;;;;;;;;;;;16.10;79.20;;;;;;5091327;28;19978;-71
2023/05/20 08:05:21;;;;;;;;;;;16.10;79.00;;;;;;5097714;28;19986;-71
2023/05/20 08:07:48;;;;;;;;;;;16.20;79.20;;;;;;5083360;28;19994;-71
2023/05/20 08:10:14;;;;;;;;;;;16.20;79.10;;;;;;5089982;28;20000;-72
2023/05/20 08:12:41;;;;;;;;;;;16.20;79.00;;;;;;5083222;28;19979;-71
2023/05/20 08:15:09;;;;;;;;;;;16.30;79.10;;;;;;5084114;28;19982;-71
2023/05/20 08:17:37;;;;;;;;;;;16.30;79.00;;;;;;5087317;28;20564;-71
2023/05/20 08:20:05;;;;;;;;;;;16.30;78.90;;;;;;5076787;28;19982;-71
2023/05/20 08:22:31;;;;;;;;;;;16.30;78.70;;;;;;5086618;28;19979;-71
2023/05/20 08:24:58;;;;;;;;;;;16.40;78.70;;;;;;5086775;28;19986;-72
2023/05/20 08:27:25;;;;;;;;;;;16.40;78.60;;;;;;5083362;28;20002;-72
2023/05/20 08:29:51;;;;;;;;;;;16.50;78.60;;;;;;5083328;28;19980;-71
2023/05/20 08:32:19;;;;;;;;;;;16.50;78.50;;;;;;5092405;28;20101;-72
2023/05/20 08:34:48;;;;;;;;;;;16.50;78.40;;;;;;5083133;28;20124;-71
2023/05/20 08:37:14;;;;;;;;;;;16.50;78.30;;;;;;5090996;28;19991;-71
2023/05/20 08:39:41;;;;;;;;;;;16.60;78.30;;;;;;5086816;28;20607;-71
2023/05/20 08:42:10;;;;;;;;;;;16.60;78.20;;;;;;5085911;28;19982;-71
2023/05/20 08:44:37;;;;;;;;;;;16.60;78.00;;;;;;5081527;28;19983;-72
2023/05/20 08:47:05;;;;;;;;;;;16.70;78.00;;;;;;5083097;28;20005;-71
2023/05/20 08:49:32;;;;;;;;;;;16.70;77.90;;;;;;5085963;28;19979;-71
2023/05/20 08:51:59;;;;;;;;;;;16.70;77.80;;;;;;5083444;28;19979;-71
2023/05/20 08:54:27;;;;;;;;;;;16.80;77.80;;;;;;5082787;28;20095;-72
2023/05/20 08:56:54;;;;;;;;;;;16.80;77.70;;;;;;5085086;28;19995;-72
2023/05/20 08:59:21;;;;;;;;;;;16.80;77.60;;;;;;5083102;28;19979;-72
2023/05/20 09:01:48;;;;;;;;;;;16.90;77.50;;;;;;5077616;28;19999;-71
2023/05/20 09:04:15;;;;;;;;;;;16.90;77.40;;;;;;5083127;28;19979;-71
2023/05/20 09:06:46;;;;;;;;;;;17.00;77.50;;;;;;5076694;28;19999;-71
2023/05/20 09:09:13;;;;;;;;;;;17.00;77.40;;;;;;5077043;28;20085;-80
2023/05/20 09:11:40;;;;;;;;;;;17.10;77.50;;;;;;5070614;28;20011;-77
2023/05/20 09:14:07;;;;;;;;;;;17.10;77.40;;;;;;5077960;28;20086;-77
2023/05/20 09:16:33;;;;;;;;;;;17.20;77.30;;;;;;5081460;28;20564;-77
2023/05/20 09:19:00;;;;;;;;;;;17.20;77.20;;;;;;5083382;28;19986;-77
2023/05/20 09:21:27;;;;;;;;;;;17.30;77.10;;;;;;5078845;28;19975;-76
2023/05/20 09:23:56;;;;;;;;;;;17.30;76.90;;;;;;5083115;28;19975;-77
2023/05/20 09:26:23;;;;;;;;;;;17.30;76.80;;;;;;5077026;28;19998;-77
2023/05/20 09:28:50;;;;;;;;;;;17.40;76.70;;;;;;5077658;28;19983;-77
2023/05/20 09:31:16;;;;;;;;;;;17.40;76.40;;;;;;5080663;28;20085;-77
2023/05/20 09:33:43;;;;;;;;;;;17.50;76.20;;;;;;5079176;28;19995;-77
2023/05/20 09:36:10;;;;;;;;;;;17.50;76.10;;;;;;5078474;28;19979;-77
2023/05/20 09:38:38;;;;;;;;;;;17.60;76.00;;;;;;5077817;28;19986;-77
2023/05/20 09:41:08;;;;;;;;;;;17.70;75.70;;;;;;5077882;28;20330;-76
2023/05/20 09:43:35;;;;;;;;;;;17.70;75.60;;;;;;5077152;28;19986;-77
2023/05/20 09:46:01;;;;;;;;;;;17.80;75.50;;;;;;5076562;28;20006;-78
2023/05/20 09:48:29;;;;;;;;;;;17.90;75.50;;;;;;5079983;28;20328;-77
2023/05/20 09:50:56;;;;;;;;;;;17.90;75.30;;;;;;5075343;28;19975;-76
2023/05/20 09:53:23;;;;;;;;;;;18.00;75.00;;;;;;5078863;28;20567;-76
2023/05/20 09:55:50;;;;;;;;;;;18.00;74.80;;;;;;5071006;28;19979;-76
2023/05/20 09:58:19;;;;;;;;;;;18.10;74.70;;;;;;5074567;28;20002;-77
2023/05/20 10:00:46;;;;;;;;;;;18.20;74.60;;;;;;5074263;28;19995;-76
2023/05/20 10:03:12;;;;;;;;;;;18.20;74.30;;;;;;5078840;28;20403;-76
2023/05/20 10:05:41;;;;;;;;;;;18.30;74.10;;;;;;5075001;28;20449;-78
2023/05/20 10:08:32;;;;;;;;;;;18.30;73.90;;;;;;5077600;28;19992;-77
2023/05/20 10:11:03;;;;;;;;;;;18.40;73.80;;;;;;5075834;28;20153;-77
2023/05/20 10:13:38;;;;;;;;;;;18.50;73.70;;;;;;5078994;28;19983;-76
2023/05/20 10:16:10;;;;;;;;;;;18.50;73.50;;;;;;5075107;28;19990;-77
2023/05/20 10:18:40;;;;;;;;;;;18.60;73.30;;;;;;5084391;28;19998;-76
2023/05/20 10:21:15;;;;;;;;;;;18.60;73.10;;;;;;5075567;28;19975;-77
2023/05/20 10:23:41;;;;;;;;;;;18.70;73.00;;;;;;5086184;28;20341;-79
2023/05/20 10:26:08;;;;;;;;;;;18.70;72.80;;;;;;5076591;28;19982;-76
2023/05/20 10:28:36;;;;;;;;;;;18.70;72.70;;;;;;5077243;28;19975;-76
2023/05/20 10:31:03;;;;;;;;;;;18.70;72.60;;;;;;5078196;28;19991;-76
2023/05/20 10:33:30;;;;;;;;;;;18.80;72.60;;;;;;5077207;28;20009;-77
2023/05/20 10:35:58;;;;;;;;;;;18.80;72.40;;;;;;5080996;28;19982;-77
2023/05/20 10:38:25;;;;;;;;;;;18.90;72.60;;;;;;5082712;28;19979;-76
2023/05/20 10:40:51;;;;;;;;;;;18.90;72.40;;;;;;5081373;28;19975;-76
2023/05/20 10:43:25;;;;;;;;;;;19.00;72.10;;;;;;5089343;28;19986;-76
2023/05/20 10:45:56;;;;;;;;;;;19.10;71.80;;;;;;5080575;28;20568;-76
2023/05/20 10:48:26;;;;;;;;;;;19.10;71.60;;;;;;5085890;28;19979;-77
2023/05/20 10:50:54;;;;;;;;;;;19.20;71.30;;;;;;5082389;28;20759;-77
2023/05/20 10:53:22;;;;;;;;;;;19.20;71.10;;;;;;5084202;28;20086;-77
2023/05/20 10:55:51;;;;;;;;;;;19.40;71.00;;;;;;5084754;28;19991;-76
2023/05/20 10:58:18;;;;;;;;;;;19.40;70.80;;;;;;5081798;28;20473;-76
2023/05/20 11:00:45;;;;;;;;;;;19.40;70.60;;;;;;5086197;28;19996;-77
2023/05/20 11:03:13;;;;;;;;;;;19.50;70.60;;;;;;5086462;28;19983;-77
2023/05/20 11:05:40;;;;;;;;;;;19.50;70.50;;;;;;5090022;28;20007;-77
2023/05/20 11:08:07;;;;;;;;;;;19.60;70.30;;;;;;5079976;28;20134;-77
2023/05/20 11:10:34;;;;;;;;;;;19.60;70.20;;;;;;5082514;28;19976;-77
2023/05/20 11:13:01;;;;;;;;;;;19.70;70.00;;;;;;5080826;28;19980;-77
2023/05/20 11:15:29;;;;;;;;;;;19.70;69.90;;;;;;5089148;28;20003;-78
2023/05/20 11:17:57;;;;;;;;;;;19.80;69.90;;;;;;5080488;28;19992;-77
2023/05/20 11:20:25;;;;;;;;;;;19.80;69.60;;;;;;5079633;28;19980;-77
2023/05/20 11:22:52;;;;;;;;;;;19.80;69.40;;;;;;5081238;28;19976;-77
2023/05/20 11:25:19;;;;;;;;;;;19.90;69.10;;;;;;5082582;28;19980;-78
2023/05/20 11:27:46;;;;;;;;;;;19.90;69.10;;;;;;5082240;28;20145;-77
2023/05/20 11:30:15;;;;;;;;;;;20.00;69.00;;;;;;5073300;28;20440;-77
2023/05/20 11:32:42;;;;;;;;;;;20.10;68.80;;;;;;5079574;28;19975;-78
2023/05/20 11:35:19;;;;;;;;;;;20.10;68.60;;;;;;5079979;28;19990;-78
2023/05/20 11:37:53;;;;;;;;;;;20.20;68.50;;;;;;5073321;28;20002;-77
2023/05/20 11:40:23;;;;;;;;;;;20.30;68.30;;;;;;5076200;28;19975;-77
2023/05/20 11:42:52;;;;;;;;;;;20.30;68.20;;;;;;5078613;28;19980;-76
2023/05/20 11:45:18;;;;;;;;;;;20.40;67.90;;;;;;5081489;28;19983;-78
2023/05/20 11:47:45;;;;;;;;;;;20.40;67.80;;;;;;5078425;28;19996;-75
2023/05/20 11:50:16;;;;;;;;;;;20.50;67.80;;;;;;5080927;28;20114;-79
2023/05/20 11:52:43;;;;;;;;;;;20.50;67.70;;;;;;5082879;28;19984;-77
2023/05/20 11:55:11;;;;;;;;;;;20.60;67.50;;;;;;5082315;28;20006;-78
2023/05/20 11:57:38;;;;;;;;;;;20.60;68.00;;;;;;5080472;28;20003;-77
2023/05/20 12:00:09;;;;;;;;;;;20.70;67.00;;;;;;5080212;28;19983;-77
2023/05/20 12:02:36;;;;;;;;;;;20.70;66.90;;;;;;5079758;28;20053;-76
2023/05/20 12:05:03;;;;;;;;;;;20.80;66.70;;;;;;5082174;28;19979;-77
2023/05/20 12:07:29;;;;;;;;;;;21.00;65.30;;;;;;5076429;28;19994;-77
2023/05/20 12:09:56;;;;;;;;;;;21.10;65.00;;;;;;5078065;28;19979;-77
2023/05/20 12:12:24;;;;;;;;;;;21.10;65.00;;;;;;5076058;28;19983;-77
2023/05/20 12:14:51;;;;;;;;;;;21.10;64.90;;;;;;5078170;28;20589;-80
2023/05/20 12:17:17;;;;;;;;;;;21.10;64.70;;;;;;5077851;28;20106;-77
2023/05/20 12:19:44;;;;;;;;;;;21.20;65.00;;;;;;5079932;28;19978;-77
2023/05/20 12:22:10;;;;;;;;;;;21.10;65.10;;;;;;5076710;28;19975;-77
2023/05/20 12:24:37;;;;;;;;;;;21.20;65.10;;;;;;5075660;28;19985;-77
2023/05/20 12:27:05;;;;;;;;;;;21.10;65.20;;;;;;5077727;28;20408;-78
2023/05/20 12:29:33;;;;;;;;;;;21.20;65.20;;;;;;5076625;28;20671;-77
2023/05/20 12:31:59;;;;;;;;;;;21.20;66.00;;;;;;5079215;28;19995;-77
2023/05/20 12:34:26;;;;;;;;;;;21.20;65.20;;;;;;5083847;28;20682;-77
2023/05/20 12:36:52;;;;;;;;;;;21.20;65.20;;;;;;5084183;28;20380;-77
2023/05/20 12:39:19;;;;;;;;;;;21.20;65.20;;;;;;5082859;28;19975;-78
2023/05/20 12:41:46;;;;;;;;;;;21.20;65.20;;;;;;5079719;28;19979;-78
2023/05/20 12:44:12;;;;;;;;;;;21.20;65.30;;;;;;5082166;28;20005;-77
2023/05/20 12:46:40;;;;;;;;;;;21.30;65.30;;;;;;5080018;28;20012;-77
2023/05/20 12:49:06;;;;;;;;;;;21.30;65.20;;;;;;5082425;28;19975;-77
2023/05/20 12:51:33;;;;;;;;;;;21.30;65.10;;;;;;5075354;28;19982;-77
2023/05/20 12:54:00;;;;;;;;;;;21.30;65.00;;;;;;5079456;28;20361;-77
2023/05/20 12:56:26;;;;;;;;;;;21.30;65.00;;;;;;5080317;28;20718;-77
2023/05/20 12:58:53;;;;;;;;;;;21.40;64.90;;;;;;5072412;28;20476;-77
2023/05/20 13:01:19;;;;;;;;;;;21.40;64.70;;;;;;5077517;28;19987;-71
2023/05/20 13:03:51;;;;;;;;;;;21.40;64.50;;;;;;5088872;28;19975;-72
2023/05/20 13:06:18;;;;;;;;;;;21.40;64.50;;;;;;5085895;28;19997;-71
2023/05/20 13:08:45;;;;;;;;;;;21.50;64.50;;;;;;5086728;28;19994;-71
2023/05/20 13:11:11;;;;;;;;;;;21.50;64.40;;;;;;5083124;28;20086;-71
2023/05/20 13:13:38;;;;;;;;;;;21.50;64.50;;;;;;5089292;28;19978;-71
2023/05/20 13:16:05;;;;;;;;;;;21.60;64.30;;;;;;5086685;28;20003;-71
2023/05/20 13:18:31;;;;;;;;;;;21.60;64.20;;;;;;5080512;28;19986;-71
2023/05/20 13:20:59;;;;;;;;;;;21.60;64.30;;;;;;5085109;28;19983;-71
2023/05/20 13:23:26;;;;;;;;;;;21.70;64.20;;;;;;5086158;28;20345;-71
2023/05/20 13:25:52;;;;;;;;;;;21.70;63.80;;;;;;5090919;28;19978;-71
2023/05/20 13:28:20;;;;;;;;;;;21.70;63.70;;;;;;5083045;28;19997;-71
2023/05/20 13:30:46;;;;;;;;;;;21.70;63.80;;;;;;5088361;28;19999;-70
2023/05/20 13:33:13;;;;;;;;;;;21.80;63.70;;;;;;5086640;28;19975;-71
2023/05/20 13:35:39;;;;;;;;;;;21.80;63.70;;;;;;5085592;28;19999;-71
2023/05/20 13:38:08;;;;;;;;;;;21.80;63.70;;;;;;5085332;28;19995;-71
2023/05/20 13:40:35;;;;;;;;;;;21.80;63.50;;;;;;5086576;28;19990;-71
2023/05/20 13:43:02;;;;;;;;;;;21.80;63.50;;;;;;5083509;28;19986;-71
2023/05/20 13:45:30;;;;;;;;;;;21.90;63.60;;;;;;5080867;28;22366;-71
2023/05/20 13:47:56;;;;;;;;;;;21.90;63.40;;;;;;5081122;28;19995;-71
2023/05/20 13:50:23;;;;;;;;;;;21.90;63.40;;;;;;5082031;28;19979;-71
2023/05/20 13:52:49;;;;;;;;;;;21.90;63.40;;;;;;5082539;28;19983;-71
2023/05/20 13:55:17;;;;;;;;;;;21.90;63.20;;;;;;5094090;28;19994;-72
2023/05/20 13:57:44;;;;;;;;;;;22.00;63.30;;;;;;5081909;28;20002;-71
2023/05/20 14:00:11;;;;;;;;;;;22.10;63.20;;;;;;5085642;28;19975;-71
2023/05/20 14:02:37;;;;;;;;;;;22.10;63.10;;;;;;5081184;28;19998;-71
2023/05/20 14:05:06;;;;;;;;;;;22.10;62.80;;;;;;5090259;28;20472;-71
2023/05/20 14:07:32;;;;;;;;;;;22.10;62.70;;;;;;5086257;28;20127;-71
2023/05/20 14:09:59;;;;;;;;;;;22.20;62.60;;;;;;5088660;28;19979;-78
2023/05/20 14:12:27;;;;;;;;;;;22.20;62.60;;;;;;5081311;28;19979;-79
2023/05/20 14:14:53;;;;;;;;;;;22.30;62.50;;;;;;5084251;28;19975;-77